Time;durP1;ratioP1;P1;durP2;ratioP2;P2;SDS_P1;SDS_P2;PMS_P1;PMS_P2;Temp;Humidity;BMP_temperature;BMP_pressure;BME280_temperature;BME280_humidity;BME280_pressure;Samples;Min_cycle;Max_cycle;Signal;HPM_P1;HPM_P2
2021/03/17 00:00:37;;;;;;;2.20;1.55;;;;;;;1.41;84.56;92044.69;5111715;28;20046;-58
2021/03/17 00:03:03;;;;;;;0.57;0.57;;;;;;;1.47;84.51;92050.75;5110497;28;20062;-58
2021/03/17 00:05:30;;;;;;;1.10;1.00;;;;;;;1.15;84.43;92016.81;5112003;28;20047;-59
2021/03/17 00:07:56;;;;;;;0.70;0.70;;;;;;;1.40;84.82;92043.25;5093808;28;20032;-59
2021/03/17 00:10:26;;;;;;;0.68;0.68;;;;;;;1.49;83.96;92052.97;5111897;28;20111;-59
2021/03/17 00:12:52;;;;;;;1.20;1.05;;;;;;;1.52;84.27;92049.91;5112035;28;20137;-59
2021/03/17 00:15:21;;;;;;;1.25;1.17;;;;;;;1.69;83.52;92043.44;5111811;28;20027;-58
2021/03/17 00:17:47;;;;;;;0.45;0.40;;;;;;;1.53;83.23;92037.06;5111849;28;20498;-57
2021/03/17 00:20:12;;;;;;;0.82;0.82;;;;;;;1.44;84.37;92045.63;5111770;28;20107;-58
2021/03/17 00:22:38;;;;;;;1.00;1.00;;;;;;;1.29;83.46;92015.53;5111703;28;20446;-59
2021/03/17 00:25:04;;;;;;;1.33;1.23;;;;;;;1.46;84.09;92040.41;5111482;28;20039;-57
2021/03/17 00:27:29;;;;;;;0.32;0.32;;;;;;;1.47;83.76;92041.88;5111992;28;20031;-60
2021/03/17 00:29:55;;;;;;;0.70;0.70;;;;;;;1.42;84.54;92043.44;5111945;28;20523;-59
2021/03/17 00:32:20;;;;;;;1.13;1.13;;;;;;;1.47;84.58;92039.16;5111580;28;20110;-59
2021/03/17 00:34:45;;;;;;;0.45;0.45;;;;;;;1.45;84.41;92041.69;5115550;28;20072;-60
2021/03/17 00:37:11;;;;;;;1.67;1.67;;;;;;;1.43;84.27;92039.47;5115677;28;20023;-60
2021/03/17 00:39:36;;;;;;;1.27;1.27;;;;;;;1.45;84.54;92036.94;5115875;28;20024;-59
2021/03/17 00:42:02;;;;;;;1.05;0.82;;;;;;;1.52;84.19;92043.75;5115496;28;20031;-60
2021/03/17 00:44:27;;;;;;;0.30;0.30;;;;;;;1.50;83.81;92038.09;5115487;28;20019;-59
2021/03/17 00:46:53;;;;;;;1.30;1.20;;;;;;;1.49;84.13;92031.22;5115668;28;20102;-60
2021/03/17 00:49:18;;;;;;;0.90;0.90;;;;;;;1.49;83.63;92037.34;5115484;28;20493;-60
2021/03/17 00:51:44;;;;;;;1.27;1.17;;;;;;;1.44;84.09;92038.22;5115541;28;20023;-60
2021/03/17 00:54:09;;;;;;;0.82;0.80;;;;;;;1.47;83.88;92029.00;5115359;28;20055;-60
2021/03/17 00:56:34;;;;;;;0.60;0.60;;;;;;;1.51;84.14;92032.16;5113834;28;20034;-59
2021/03/17 00:59:00;;;;;;;1.42;1.40;;;;;;;1.51;83.85;92029.44;5115202;28;20032;-60
2021/03/17 01:01:25;;;;;;;0.77;0.77;;;;;;;1.57;84.39;92031.28;5115350;28;20069;-59
2021/03/17 01:03:51;;;;;;;1.70;1.27;;;;;;;1.43;84.02;92008.81;5115050;28;20430;-60
2021/03/17 01:06:16;;;;;;;3.20;1.25;;;;;;;1.54;84.04;92014.78;5115139;28;20034;-60
2021/03/17 01:08:42;;;;;;;1.08;0.85;;;;;;;1.47;83.94;92012.69;5115055;28;20107;-59
2021/03/17 01:11:08;;;;;;;0.77;0.77;;;;;;;1.54;83.44;92036.53;5115244;28;20019;-60
2021/03/17 01:13:33;;;;;;;1.83;1.73;;;;;;;1.50;84.06;92036.13;5115049;28;20734;-60
2021/03/17 01:15:58;;;;;;;1.23;1.23;;;;;;;1.67;83.26;92033.06;5115101;28;20024;-55
2021/03/17 01:18:24;;;;;;;1.65;1.52;;;;;;;1.71;82.90;92033.47;5114948;28;20476;-57
2021/03/17 01:20:49;;;;;;;1.95;1.85;;;;;;;1.68;82.83;92031.81;5114817;28;20057;-55
2021/03/17 01:23:16;;;;;;;1.35;1.05;;;;;;;1.66;83.60;92028.16;5114985;28;20090;-54
2021/03/17 01:25:44;;;;;;;1.30;1.30;;;;;;;1.49;83.71;92029.19;5114732;28;20082;-54
2021/03/17 01:28:11;;;;;;;0.50;0.50;;;;;;;1.50;83.94;92027.97;5114718;28;20499;-56
2021/03/17 01:30:48;;;;;;;1.40;1.35;;;;;;;1.46;83.87;92030.25;5114665;28;20089;-62
2021/03/17 01:33:15;;;;;;;0.38;0.38;;;;;;;1.49;84.42;92026.47;5114639;28;20016;-61
2021/03/17 01:35:44;;;;;;;1.45;1.17;;;;;;;1.47;83.81;92029.00;5114638;28;20036;-61
2021/03/17 01:38:09;;;;;;;1.17;1.08;;;;;;;1.41;83.84;92025.66;5114654;28;20115;-62
2021/03/17 01:40:37;;;;;;;1.38;1.38;;;;;;;1.48;83.91;92029.72;5114434;28;20114;-62
2021/03/17 01:43:02;;;;;;;0.70;0.70;;;;;;;1.35;84.01;92016.16;5114479;28;20031;-61
2021/03/17 01:45:28;;;;;;;1.17;1.08;;;;;;;1.58;84.07;92032.75;5113180;28;20034;-62
2021/03/17 01:47:54;;;;;;;0.50;0.50;;;;;;;1.48;83.77;92027.00;5114247;28;20036;-62
2021/03/17 01:50:26;;;;;;;2.35;1.50;;;;;;;1.52;84.00;92027.44;5113119;28;20068;-60
2021/03/17 01:52:53;;;;;;;0.95;0.90;;;;;;;1.44;83.93;92024.63;5114516;28;20023;-62
2021/03/17 01:55:20;;;;;;;0.55;0.55;;;;;;;1.47;84.02;92023.56;5114384;28;20120;-61
2021/03/17 01:57:46;;;;;;;2.03;1.38;;;;;;;1.51;84.33;92026.72;5114206;28;20032;-61
2021/03/17 02:00:14;;;;;;;0.93;0.93;;;;;;;1.49;84.22;92023.75;5114079;28;20019;-56
2021/03/17 02:02:41;;;;;;;1.45;1.40;;;;;;;1.53;83.74;92026.19;5114081;28;20581;-59
2021/03/17 02:05:12;;;;;;;0.30;0.30;;;;;;;1.57;83.53;92029.31;5114092;28;20030;-57
2021/03/17 02:07:38;;;;;;;0.80;0.80;;;;;;;1.50;84.21;92022.50;5113925;28;20030;-59
2021/03/17 02:10:09;;;;;;;1.05;1.05;;;;;;;1.42;84.62;92018.97;5113919;28;20110;-60
2021/03/17 02:12:47;;;;;;;1.05;1.05;;;;;;;1.38;84.80;92029.44;5113754;28;20030;-63
2021/03/17 02:15:46;;;;;;;0.85;0.85;;;;;;;1.39;84.90;92028.19;5095745;28;20035;-63
2021/03/17 02:18:25;;;;;;;0.75;0.75;;;;;;;1.29;85.19;92034.56;5113886;28;20027;-62
2021/03/17 02:21:14;;;;;;;0.68;0.68;;;;;;;1.25;85.50;92026.00;5113899;28;20034;-63
2021/03/17 02:23:51;;;;;;;1.27;1.27;;;;;;;1.17;85.63;92017.72;5113606;28;20436;-63
2021/03/17 02:26:53;;;;;;;0.43;0.40;;;;;;;1.23;85.69;92026.53;5095361;28;20122;-64
2021/03/17 02:30:06;;;;;;;1.08;1.08;;;;;;;1.24;85.83;92027.97;5113626;28;20020;-64
2021/03/17 02:32:53;;;;;;;0.47;0.47;;;;;;;1.15;85.78;92028.38;5113588;28;20019;-61
2021/03/17 02:35:20;;;;;;;1.02;1.02;;;;;;;1.16;86.16;92029.13;5113431;28;20027;-61
2021/03/17 02:37:48;;;;;;;0.28;0.28;;;;;;;1.06;86.14;92009.06;5113339;28;20053;-61
2021/03/17 02:40:34;;;;;;;0.30;0.30;;;;;;;1.24;85.31;92033.41;5095289;28;20031;-60
2021/03/17 02:43:19;;;;;;;0.52;0.52;;;;;;;1.21;85.60;92031.72;5093353;28;20034;-59
2021/03/17 02:45:49;;;;;;;0.35;0.35;;;;;;;1.20;85.44;92032.25;5095235;28;20077;-60
2021/03/17 02:48:21;;;;;;;0.60;0.60;;;;;;;1.19;86.03;92028.78;5094847;28;20056;-60
2021/03/17 02:50:48;;;;;;;1.02;1.02;;;;;;;1.10;85.38;92018.38;5095627;28;20028;-62
2021/03/17 02:53:15;;;;;;;0.80;0.80;;;;;;;1.17;85.33;92031.31;5113052;28;20080;-62
2021/03/17 02:55:46;;;;;;;0.65;0.65;;;;;;;1.09;86.11;92024.31;5094453;28;20068;-62
2021/03/17 02:58:11;;;;;;;2.30;2.15;;;;;;;0.95;85.85;92011.97;5095047;28;20055;-62
2021/03/17 03:00:38;;;;;;;0.32;0.32;;;;;;;1.07;85.63;92024.84;5112832;28;20477;-61
2021/03/17 03:03:04;;;;;;;0.35;0.35;;;;;;;0.97;86.09;92020.34;5112942;28;20028;-61
2021/03/17 03:05:30;;;;;;;1.08;0.77;;;;;;;1.11;86.05;92030.69;5112954;28;20023;-64
2021/03/17 03:07:57;;;;;;;0.68;0.68;;;;;;;1.09;86.55;92027.75;5094926;28;20027;-63
2021/03/17 03:10:25;;;;;;;0.40;0.40;;;;;;;1.10;86.33;92021.09;5112789;28;20037;-63
2021/03/17 03:12:50;;;;;;;1.52;1.52;;;;;;;1.00;86.46;92014.59;5094539;28;20208;-63
2021/03/17 03:15:17;;;;;;;1.08;1.08;;;;;;;1.10;86.40;92040.13;5112647;28;20031;-60
2021/03/17 03:17:44;;;;;;;0.63;0.63;;;;;;;1.13;85.37;92039.03;5112469;28;20095;-57
2021/03/17 03:20:11;;;;;;;0.75;0.75;;;;;;;0.99;85.69;92012.41;5112567;28;20031;-57
2021/03/17 03:22:39;;;;;;;0.98;0.77;;;;;;;1.05;85.42;92019.19;5112474;28;20476;-58
2021/03/17 03:25:05;;;;;;;0.55;0.55;;;;;;;1.05;85.99;92035.50;5112222;28;20055;-58
2021/03/17 03:27:33;;;;;;;0.30;0.30;;;;;;;1.05;86.15;92032.78;5112576;28;20042;-59
2021/03/17 03:29:59;;;;;;;1.65;1.63;;;;;;;1.09;85.65;92037.91;5094264;28;20031;-59
2021/03/17 03:32:24;;;;;;;0.30;0.30;;;;;;;1.10;85.51;92034.66;5094378;28;20107;-58
2021/03/17 03:34:49;;;;;;;0.75;0.75;;;;;;;1.07;85.57;92038.44;5110794;28;20110;-58
2021/03/17 03:37:15;;;;;;;1.02;0.90;;;;;;;1.07;85.77;92033.00;5112247;28;20028;-59
2021/03/17 03:39:41;;;;;;;0.73;0.73;;;;;;;1.08;85.94;92039.16;5112428;28;20031;-58
2021/03/17 03:42:07;;;;;;;0.40;0.40;;;;;;;1.03;85.61;92040.72;5112123;28;20411;-60
2021/03/17 03:44:33;;;;;;;0.57;0.57;;;;;;;0.88;85.59;92028.91;5112249;28;20027;-59
2021/03/17 03:46:59;;;;;;;0.43;0.43;;;;;;;0.86;85.77;92026.72;5112126;28;20453;-60
2021/03/17 03:49:24;;;;;;;1.02;1.02;;;;;;;0.95;86.05;92034.47;5112233;28;20024;-58
2021/03/17 03:52:06;;;;;;;0.85;0.85;;;;;;;1.00;86.38;92033.59;5111772;28;20497;-59
2021/03/17 03:54:38;;;;;;;2.83;1.70;;;;;;;0.96;86.16;92040.59;5112192;28;20031;-58
2021/03/17 03:57:08;;;;;;;0.55;0.55;;;;;;;0.75;86.50;92010.59;5094011;28;20035;-58
2021/03/17 03:59:41;;;;;;;0.65;0.65;;;;;;;0.89;85.96;92020.22;5112020;28;20502;-59
2021/03/17 04:02:08;;;;;;;0.60;0.60;;;;;;;0.89;86.29;92031.09;5093742;28;20058;-55
2021/03/17 04:04:38;;;;;;;0.28;0.28;;;;;;;0.91;85.78;92027.88;5094126;28;20054;-61
2021/03/17 04:07:04;;;;;;;2.70;0.75;;;;;;;0.96;86.12;92030.47;5111432;28;20045;-60
2021/03/17 04:09:33;;;;;;;0.85;0.85;;;;;;;0.98;85.99;92030.69;5093451;28;20034;-57
2021/03/17 04:12:02;;;;;;;1.33;1.25;;;;;;;0.99;85.64;92036.84;5093812;28;20035;-61
2021/03/17 04:14:30;;;;;;;1.85;0.95;;;;;;;0.94;85.50;92038.41;5111821;28;20027;-63
2021/03/17 04:17:05;;;;;;;0.55;0.55;;;;;;;0.91;85.38;92039.44;5111854;28;20098;-59
2021/03/17 04:19:32;;;;;;;0.50;0.50;;;;;;;0.93;86.12;92047.84;5093892;28;20036;-59
2021/03/17 04:21:58;;;;;;;0.32;0.32;;;;;;;0.92;85.96;92046.34;5093655;28;20027;-60
2021/03/17 04:24:25;;;;;;;0.20;0.20;;;;;;;0.86;86.13;92037.56;5092884;28;20080;-60
2021/03/17 04:26:52;;;;;;;1.23;1.15;;;;;;;0.82;85.89;92036.41;5093227;28;20059;-60
2021/03/17 04:29:19;;;;;;;0.55;0.55;;;;;;;0.83;85.51;92035.16;5093757;28;20027;-60
2021/03/17 04:31:44;;;;;;;0.52;0.52;;;;;;;0.72;85.88;92017.81;5093609;28;20498;-60
2021/03/17 04:34:11;;;;;;;0.57;0.57;;;;;;;0.78;85.77;92031.28;5093545;28;20019;-60
2021/03/17 04:36:36;;;;;;;0.52;0.52;;;;;;;0.83;85.91;92032.44;5093314;28;20481;-62
2021/03/17 04:39:02;;;;;;;3.13;1.95;;;;;;;0.78;86.40;92025.84;5093467;28;20024;-63
2021/03/17 04:41:28;;;;;;;0.60;0.60;;;;;;;0.72;86.49;92036.81;5093258;28;20027;-63
2021/03/17 04:43:54;;;;;;;0.57;0.57;;;;;;;0.64;86.69;92021.66;5111600;28;20028;-60
2021/03/17 04:46:20;;;;;;;1.20;1.10;;;;;;;0.71;86.49;92042.78;5093604;28;20034;-61
2021/03/17 04:48:45;;;;;;;0.73;0.73;;;;;;;0.66;86.17;92030.75;5093355;28;20690;-60
2021/03/17 04:51:11;;;;;;;0.57;0.57;;;;;;;0.66;86.46;92046.31;5111514;28;20031;-60
2021/03/17 04:53:37;;;;;;;0.47;0.47;;;;;;;0.71;86.54;92042.78;5111529;28;20381;-60
2021/03/17 04:56:04;;;;;;;0.43;0.43;;;;;;;0.67;86.49;92040.34;5111583;28;20027;-59
2021/03/17 04:58:30;;;;;;;3.00;1.80;;;;;;;0.59;86.28;92044.94;5093413;28;20032;-60
2021/03/17 05:00:55;;;;;;;2.42;1.77;;;;;;;0.61;86.55;92050.56;5093263;28;20507;-60
2021/03/17 05:03:23;;;;;;;0.95;0.95;;;;;;;0.67;86.27;92053.94;5111414;28;20024;-60
2021/03/17 05:05:50;;;;;;;0.35;0.35;;;;;;;0.70;86.16;92046.72;5111381;28;20066;-62
2021/03/17 05:08:17;;;;;;;0.30;0.30;;;;;;;0.71;86.72;92045.50;5093293;28;20061;-61
2021/03/17 05:10:43;;;;;;;0.38;0.35;;;;;;;0.62;85.84;92046.63;5111393;28;20024;-61
2021/03/17 05:13:10;;;;;;;1.05;1.05;;;;;;;0.60;86.39;92048.38;5092961;28;20031;-61
2021/03/17 05:15:36;;;;;;;1.05;1.05;;;;;;;0.58;86.32;92053.59;5111296;28;20035;-62
2021/03/17 05:18:03;;;;;;;1.63;1.10;;;;;;;0.59;86.96;92044.19;5093328;28;20416;-58
2021/03/17 05:20:29;;;;;;;1.95;1.85;;;;;;;0.62;86.63;92060.19;5114422;28;20081;-60
2021/03/17 05:22:54;;;;;;;0.50;0.50;;;;;;;0.66;85.77;92046.31;5096838;28;20035;-60
2021/03/17 05:25:21;;;;;;;2.40;1.40;;;;;;;0.69;85.84;92054.13;5096405;28;20052;-59
2021/03/17 05:27:50;;;;;;;0.82;0.82;;;;;;;0.63;85.85;92050.03;5114947;28;20032;-59
2021/03/17 05:30:16;;;;;;;;;;;;;;;0.59;85.71;92063.19;5095969;28;20077;-59
2021/03/17 05:32:42;;;;;;;1.05;1.05;;;;;;;0.65;86.02;92055.72;5096155;28;19907;-59
2021/03/17 05:35:09;;;;;;;1.63;1.52;;;;;;;0.71;85.74;92056.34;5114611;28;20032;-60
2021/03/17 05:37:36;;;;;;;0.63;0.63;;;;;;;0.67;85.79;92053.94;5114898;28;20051;-59
2021/03/17 05:40:02;;;;;;;1.25;1.23;;;;;;;0.66;85.30;92051.75;5114603;28;20074;-59
2021/03/17 05:42:28;;;;;;;0.60;0.60;;;;;;;0.68;85.47;92063.56;5114470;28;20032;-56
2021/03/17 05:44:54;;;;;;;1.80;1.70;;;;;;;0.70;85.56;92058.34;5114394;28;20035;-53
2021/03/17 05:47:21;;;;;;;1.88;1.77;;;;;;;0.70;85.16;92063.75;5114257;28;20071;-60
2021/03/17 05:49:48;;;;;;;0.57;0.57;;;;;;;0.66;85.56;92065.31;5114296;28;20038;-60
2021/03/17 05:52:15;;;;;;;0.77;0.77;;;;;;;0.71;84.89;92078.78;5114294;28;20077;-60
2021/03/17 05:54:41;;;;;;;1.00;1.00;;;;;;;0.65;85.08;92058.44;5114267;28;20442;-60
2021/03/17 05:57:06;;;;;;;1.63;1.52;;;;;;;0.65;84.88;92072.72;5114144;28;20034;-59
2021/03/17 05:59:32;;;;;;;0.63;0.63;;;;;;;0.61;85.09;92064.16;5114276;28;20456;-60
2021/03/17 06:01:58;;;;;;;1.30;1.30;;;;;;;0.56;85.33;92073.13;5113656;28;20028;-61
2021/03/17 06:04:28;;;;;;;1.52;1.42;;;;;;;0.56;85.45;92066.97;5113170;28;20423;-63
2021/03/17 06:06:59;;;;;;;0.60;0.60;;;;;;;0.61;85.04;92080.44;5095804;28;20023;-65
2021/03/17 06:09:26;;;;;;;1.10;1.10;;;;;;;0.57;84.68;92076.56;5114037;28;20020;-64
2021/03/17 06:11:53;;;;;;;1.48;1.48;;;;;;;0.57;85.54;92084.72;5113914;28;20019;-64
2021/03/17 06:14:20;;;;;;;1.23;1.15;;;;;;;0.56;85.32;92083.97;5113830;28;20015;-64
2021/03/17 06:16:49;;;;;;;0.70;0.70;;;;;;;0.53;85.05;92087.00;5095723;28;20020;-62
2021/03/17 06:19:14;;;;;;;3.28;0.70;;;;;;;0.51;85.78;92082.09;5094640;28;20032;-62
2021/03/17 06:21:41;;;;;;;0.70;0.70;;;;;;;0.53;85.06;92085.03;5113763;28;20532;-65
2021/03/17 06:24:10;;;;;;;0.68;0.68;;;;;;;0.70;84.81;92099.06;5113735;28;20458;-66
2021/03/17 06:26:38;;;;;;;1.52;1.13;;;;;;;0.64;84.72;92093.00;5095737;28;20532;-66
2021/03/17 06:29:03;;;;;;;0.57;0.57;;;;;;;0.69;84.89;92092.16;5113648;28;20031;-67
2021/03/17 06:31:30;;;;;;;0.88;0.88;;;;;;;0.67;84.76;92093.97;5094810;28;20024;-65
2021/03/17 06:33:56;;;;;;;0.60;0.60;;;;;;;0.82;83.69;92096.91;5095289;28;20093;-61
2021/03/17 06:36:23;;;;;;;1.02;1.02;;;;;;;0.84;83.66;92099.09;5113344;28;20719;-59
2021/03/17 06:38:49;;;;;;;0.75;0.75;;;;;;;0.77;83.91;92097.72;5113386;28;20015;-60
2021/03/17 06:41:16;;;;;;;1.38;1.27;;;;;;;0.82;83.56;92101.63;5113456;28;20019;-60
2021/03/17 06:43:46;;;;;;;1.23;1.23;;;;;;;0.85;83.61;92097.84;5113108;28;20030;-60
2021/03/17 06:46:17;;;;;;;0.30;0.30;;;;;;;0.75;83.43;92092.81;5113310;28;20024;-58
2021/03/17 06:48:43;;;;;;;1.58;1.25;;;;;;;0.69;83.11;92091.44;5113212;28;20536;-58
2021/03/17 06:51:17;;;;;;;1.67;1.27;;;;;;;0.86;83.59;92110.19;5111722;28;20020;-59
2021/03/17 06:53:59;;;;;;;5.60;1.55;;;;;;;0.90;83.09;92103.19;5113160;28;20500;-60
2021/03/17 06:56:29;;;;;;;1.02;0.98;;;;;;;1.06;82.70;92101.47;5113087;28;20051;-59
2021/03/17 06:59:02;;;;;;;0.30;0.30;;;;;;;1.15;82.77;92103.78;5113181;28;20047;-59
2021/03/17 07:01:36;;;;;;;0.52;0.52;;;;;;;1.10;82.15;92099.91;5112992;28;20051;-60
2021/03/17 07:04:08;;;;;;;0.30;0.30;;;;;;;0.98;81.32;92089.72;5113052;28;20055;-60
2021/03/17 07:06:35;;;;;;;2.13;2.03;;;;;;;1.00;82.38;92106.97;5113060;28;20020;-60
2021/03/17 07:09:19;;;;;;;0.40;0.40;;;;;;;1.02;82.30;92109.19;5112848;28;20073;-58
2021/03/17 07:11:50;;;;;;;0.30;0.30;;;;;;;1.07;82.25;92103.66;5112712;28;20470;-57
2021/03/17 07:14:23;;;;;;;0.93;0.93;;;;;;;0.94;81.99;92114.50;5112795;28;20030;-53
2021/03/17 07:16:48;;;;;;;1.05;1.05;;;;;;;1.01;82.28;92111.16;5112892;28;20050;-61
2021/03/17 07:19:30;;;;;;;1.15;1.08;;;;;;;1.11;82.32;92106.06;5094706;28;20020;-61
2021/03/17 07:22:04;;;;;;;1.27;1.10;;;;;;;1.09;81.77;92103.88;5112512;28;20089;-61
2021/03/17 07:24:29;;;;;;;0.45;0.45;;;;;;;1.20;81.30;92113.81;5112456;28;20026;-62
2021/03/17 07:26:54;;;;;;;0.35;0.35;;;;;;;1.32;81.54;92110.38;5108415;28;20039;-65
2021/03/17 07:29:20;;;;;;;0.47;0.47;;;;;;;1.28;81.25;92114.66;5072973;28;20040;-62
2021/03/17 07:31:48;;;;;;;0.98;0.98;;;;;;;1.30;81.31;92114.88;5090944;28;20034;-62
2021/03/17 07:34:21;;;;;;;1.17;1.17;;;;;;;1.45;81.18;92107.66;5090954;28;20099;-61
2021/03/17 07:37:01;;;;;;;1.52;1.45;;;;;;;1.52;80.26;92111.75;5090812;28;20421;-60
2021/03/17 07:39:38;;;;;;;0.82;0.82;;;;;;;1.53;80.23;92113.94;5090672;28;20096;-60
2021/03/17 07:42:07;;;;;;;0.22;0.22;;;;;;;1.54;80.09;92126.28;5092128;28;20085;-60
2021/03/17 07:44:35;;;;;;;2.42;1.48;;;;;;;1.55;80.58;92121.59;5090522;28;20032;-63
2021/03/17 07:47:03;;;;;;;0.70;0.70;;;;;;;1.71;79.59;92119.81;5090951;28;20030;-63
2021/03/17 07:49:29;;;;;;;1.98;1.88;;;;;;;1.65;79.39;92116.44;5090389;28;20062;-61
2021/03/17 07:51:59;;;;;;;1.60;1.50;;;;;;;1.69;79.40;92116.88;5090542;28;20016;-64
2021/03/17 07:54:35;;;;;;;1.15;1.15;;;;;;;1.54;79.13;92118.13;5090744;28;20456;-60
2021/03/17 07:57:03;;;;;;;0.70;0.70;;;;;;;1.58;78.74;92117.09;5090591;28;20032;-59
2021/03/17 07:59:29;;;;;;;2.50;2.38;;;;;;;1.58;79.47;92115.09;5090549;28;20017;-63
2021/03/17 08:01:56;;;;;;;0.70;0.70;;;;;;;1.64;78.82;92123.16;5092025;28;20032;-65
2021/03/17 08:04:25;;;;;;;0.60;0.60;;;;;;;1.73;79.32;92114.56;5110631;28;20039;-61
2021/03/17 08:06:51;;;;;;;0.50;0.50;;;;;;;1.69;78.77;92125.03;5095196;28;20111;-67
2021/03/17 08:09:16;;;;;;;0.63;0.63;;;;;;;1.71;78.68;92122.53;5092615;28;20103;-60
2021/03/17 08:11:41;;;;;;;1.00;1.00;;;;;;;1.79;78.75;92120.63;5111076;28;20096;-62
2021/03/17 08:14:08;;;;;;;3.03;0.75;;;;;;;1.89;78.88;92125.13;5101943;28;20078;-62
2021/03/17 08:16:35;;;;;;;1.50;1.40;;;;;;;1.76;78.75;92125.13;5075132;28;20475;-62
2021/03/17 08:19:02;;;;;;;0.65;0.65;;;;;;;1.70;78.89;92131.94;5090418;28;20028;-62
2021/03/17 08:21:47;;;;;;;0.90;0.90;;;;;;;1.74;79.50;92127.66;5099187;28;20105;-65
2021/03/17 08:24:37;;;;;;;1.23;1.15;;;;;;;1.79;79.32;92129.53;5089264;28;20028;-65
2021/03/17 08:27:05;;;;;;;1.00;1.00;;;;;;;2.02;78.39;92118.91;5089902;28;20052;-62
2021/03/17 08:29:40;;;;;;;2.03;1.70;;;;;;;2.09;78.18;92129.19;5090607;28;20035;-59
2021/03/17 08:32:07;;;;;;;1.95;1.80;;;;;;;2.11;76.67;92126.66;5089744;28;20107;-61
2021/03/17 08:34:34;;;;;;;2.63;0.90;;;;;;;2.11;78.03;92123.94;5106375;28;20027;-63
2021/03/17 08:37:17;;;;;;;0.57;0.57;;;;;;;1.78;78.49;92095.41;5110243;28;20412;-60
2021/03/17 08:39:44;;;;;;;0.55;0.55;;;;;;;2.14;77.11;92131.78;5079938;28;20062;-60
2021/03/17 08:42:30;;;;;;;0.50;0.50;;;;;;;2.27;77.48;92128.31;5101760;28;20062;-59
2021/03/17 08:44:58;;;;;;;1.33;1.33;;;;;;;2.27;76.96;92133.75;5108046;28;20023;-57
2021/03/17 08:47:28;;;;;;;1.35;1.35;;;;;;;2.21;77.00;92105.91;5107734;28;20087;-57
2021/03/17 08:49:56;;;;;;;1.73;1.25;;;;;;;2.19;76.82;92116.59;5110061;28;20128;-60
2021/03/17 08:52:58;;;;;;;2.83;1.13;;;;;;;2.21;77.46;92119.50;5109995;28;20522;-51
2021/03/17 08:55:35;;;;;;;1.20;1.10;;;;;;;2.23;77.14;92123.19;5099721;28;20038;-52
2021/03/17 08:58:21;;;;;;;0.93;0.93;;;;;;;2.14;76.24;92123.59;5093550;28;20587;-57
2021/03/17 09:00:53;;;;;;;1.98;1.88;;;;;;;2.11;77.60;92121.22;5093504;28;20028;-60
2021/03/17 09:03:31;;;;;;;0.38;0.38;;;;;;;2.27;77.95;92129.03;5093348;28;20076;-51
2021/03/17 09:06:14;;;;;;;0.65;0.65;;;;;;;2.45;76.55;92129.44;5093574;28;20412;-52
2021/03/17 09:08:46;;;;;;;3.33;1.42;;;;;;;2.28;76.35;92127.78;5107166;28;20054;-60
2021/03/17 09:11:32;;;;;;;1.05;1.05;;;;;;;2.21;76.43;92130.41;5113797;28;20055;-54
2021/03/17 09:14:03;;;;;;;0.90;0.90;;;;;;;2.19;76.48;92127.47;5113559;28;20047;-53
2021/03/17 09:16:30;;;;;;;1.08;0.88;;;;;;;2.29;76.58;92123.06;5113509;28;20580;-49
2021/03/17 09:19:04;;;;;;;2.17;2.08;;;;;;;2.32;76.63;92132.19;5113425;28;20058;-51
2021/03/17 09:21:32;;;;;;;1.33;1.23;;;;;;;2.45;76.13;92126.69;5113940;28;20023;-50
2021/03/17 09:23:57;;;;;;;0.50;0.50;;;;;;;2.40;76.33;92114.66;5112360;28;20132;-55
2021/03/17 09:26:27;;;;;;;0.77;0.77;;;;;;;2.57;75.49;92134.09;5113379;28;20036;-49
2021/03/17 09:28:53;;;;;;;0.50;0.50;;;;;;;2.41;76.29;92129.00;5108659;28;20028;-54
2021/03/17 09:31:19;;;;;;;1.10;0.70;;;;;;;2.45;76.11;92129.44;5110420;28;20085;-50
2021/03/17 09:33:45;;;;;;;0.85;0.85;;;;;;;2.53;75.23;92133.69;5112996;28;20438;-59
2021/03/17 09:36:11;;;;;;;0.38;0.38;;;;;;;2.31;75.83;92134.16;5113375;28;20028;-57
2021/03/17 09:38:47;;;;;;;1.58;1.48;;;;;;;2.44;75.97;92139.59;5112677;28;20059;-57
2021/03/17 09:41:23;;;;;;;0.75;0.75;;;;;;;2.51;75.63;92138.94;5094760;28;20058;-51
2021/03/17 09:43:55;;;;;;;1.02;1.02;;;;;;;2.68;75.14;92144.00;5112899;28;20495;-59
2021/03/17 09:46:25;;;;;;;1.63;1.52;;;;;;;2.87;74.73;92144.56;5112773;28;20527;-51
2021/03/17 09:48:52;;;;;;;1.35;1.00;;;;;;;2.78;74.81;92139.56;5110016;28;20055;-58
2021/03/17 09:51:20;;;;;;;0.73;0.73;;;;;;;2.68;75.10;92125.69;5111784;28;20486;-58
2021/03/17 09:53:47;;;;;;;0.25;0.25;;;;;;;2.85;74.43;92136.19;5112620;28;20081;-57
2021/03/17 09:56:13;;;;;;;0.40;0.40;;;;;;;2.80;74.72;92134.31;5112948;28;20027;-57
2021/03/17 09:58:39;;;;;;;0.30;0.30;;;;;;;2.88;74.58;92135.84;5112196;28;20100;-47
2021/03/17 10:01:12;;;;;;;1.08;0.98;;;;;;;2.86;74.17;92141.09;5090646;28;20461;-53
2021/03/17 10:03:43;;;;;;;2.50;1.58;;;;;;;3.14;73.81;92151.34;5093835;28;20501;-56
2021/03/17 10:06:08;;;;;;;1.52;1.10;;;;;;;3.12;73.02;92147.72;5111554;28;20107;-53
2021/03/17 10:08:34;;;;;;;1.05;1.05;;;;;;;3.14;73.07;92145.91;5112678;28;20118;-50
2021/03/17 10:11:00;;;;;;;1.08;0.60;;;;;;;3.10;73.07;92155.69;5111987;28;20019;-58
2021/03/17 10:13:26;;;;;;;0.38;0.38;;;;;;;3.00;72.99;92156.16;5112228;28;20416;-59
2021/03/17 10:15:54;;;;;;;0.57;0.57;;;;;;;2.84;73.42;92142.88;5112179;28;20027;-55
2021/03/17 10:18:19;;;;;;;0.82;0.82;;;;;;;2.69;73.91;92154.38;5090427;28;20527;-50
2021/03/17 10:20:45;;;;;;;0.43;0.43;;;;;;;2.75;74.57;92152.25;5092149;28;20027;-49
2021/03/17 10:23:10;;;;;;;0.75;0.75;;;;;;;2.89;74.18;92150.94;5096569;28;20032;-52
2021/03/17 10:25:36;;;;;;;0.95;0.95;;;;;;;2.82;73.70;92156.31;5111794;28;20040;-49
2021/03/17 10:28:08;;;;;;;0.30;0.30;;;;;;;2.99;74.40;92153.94;5111728;28;20477;-52
2021/03/17 10:30:38;;;;;;;0.98;0.95;;;;;;;2.92;73.95;92166.22;5111916;28;20030;-61
2021/03/17 10:33:14;;;;;;;0.60;0.50;;;;;;;2.99;73.43;92154.69;5093864;28;20022;-59
2021/03/17 10:35:41;;;;;;;0.50;0.50;;;;;;;2.80;74.19;92154.13;5112009;28;20080;-58
2021/03/17 10:38:08;;;;;;;0.70;0.70;;;;;;;2.82;73.52;92154.31;5111893;28;20194;-61
2021/03/17 10:40:35;;;;;;;0.95;0.90;;;;;;;2.79;73.74;92149.97;5111778;28;20023;-61
2021/03/17 10:43:12;;;;;;;1.85;1.20;;;;;;;2.68;74.47;92149.47;5111737;28;20103;-57
2021/03/17 10:45:43;;;;;;;0.32;0.32;;;;;;;2.70;74.65;92163.28;5093579;28;20558;-58
2021/03/17 10:48:14;;;;;;;0.60;0.60;;;;;;;2.65;74.69;92172.31;5111759;28;20030;-60
2021/03/17 10:50:40;;;;;;;0.45;0.45;;;;;;;2.69;75.07;92168.00;5111441;28;20049;-66
2021/03/17 10:53:27;;;;;;;0.93;0.80;;;;;;;2.79;74.75;92163.59;5111429;28;20075;-58
2021/03/17 10:55:58;;;;;;;1.00;0.90;;;;;;;2.81;73.77;92163.03;5103737;28;20038;-58
2021/03/17 10:58:30;;;;;;;1.67;1.60;;;;;;;2.92;74.67;92166.22;5091111;28;20488;-59
2021/03/17 11:01:00;;;;;;;1.05;1.00;;;;;;;3.00;73.83;92172.50;5096634;28;20456;-57
2021/03/17 11:03:28;;;;;;;0.40;0.40;;;;;;;2.84;73.33;92170.88;5105321;28;20131;-57
2021/03/17 11:06:10;;;;;;;1.33;1.23;;;;;;;2.93;74.06;92164.25;5111498;28;20035;-61
2021/03/17 11:08:35;;;;;;;0.90;0.90;;;;;;;2.91;74.10;92159.34;5110108;28;20032;-61
2021/03/17 11:11:06;;;;;;;1.67;1.23;;;;;;;2.77;74.32;92162.66;5102867;28;20028;-66
2021/03/17 11:13:32;;;;;;;0.60;0.60;;;;;;;2.85;74.60;92164.19;5091433;28;20077;-58
2021/03/17 11:16:05;;;;;;;0.80;0.80;;;;;;;2.62;74.40;92159.75;5090811;28;20020;-60
2021/03/17 11:18:33;;;;;;;3.92;1.05;;;;;;;2.80;75.05;92175.19;5090460;28;20042;-60
2021/03/17 11:21:00;;;;;;;1.98;1.88;;;;;;;2.78;74.50;92162.09;5090692;28;20021;-62
2021/03/17 11:23:34;;;;;;;0.80;0.77;;;;;;;2.89;74.46;92152.94;5089336;28;20079;-60
2021/03/17 11:26:01;;;;;;;1.20;1.00;;;;;;;2.86;74.64;92154.72;5090452;28;20056;-59
2021/03/17 11:28:28;;;;;;;0.38;0.38;;;;;;;2.97;73.67;92146.28;5090223;28;20088;-59
2021/03/17 11:30:55;;;;;;;0.50;0.50;;;;;;;2.75;74.32;92157.69;5090885;28;20488;-61
2021/03/17 11:33:21;;;;;;;1.02;1.02;;;;;;;2.71;75.30;92160.03;5090522;28;20405;-58
2021/03/17 11:35:48;;;;;;;0.73;0.73;;;;;;;2.75;74.98;92160.44;5090338;28;20020;-62
2021/03/17 11:38:13;;;;;;;0.77;0.77;;;;;;;2.90;74.12;92160.56;5090278;28;20050;-62
2021/03/17 11:40:40;;;;;;;0.82;0.82;;;;;;;3.00;73.84;92149.97;5090404;28;20492;-61
2021/03/17 11:43:17;;;;;;;2.30;0.90;;;;;;;2.80;74.20;92161.56;5090186;28;20027;-59
2021/03/17 11:45:43;;;;;;;1.33;1.23;;;;;;;3.00;74.52;92161.59;5090211;28;20069;-55
2021/03/17 11:48:10;;;;;;;0.30;0.30;;;;;;;2.90;74.27;92166.03;5072319;28;20028;-63
2021/03/17 11:50:37;;;;;;;0.80;0.77;;;;;;;2.92;74.10;92173.69;5089960;28;20030;-60